Time;durP1;ratioP1;P1;durP2;ratioP2;P2;SDS_P1;SDS_P2;PMS_P1;PMS_P2;Temp;Humidity;BMP_temperature;BMP_pressure;BME280_temperature;BME280_humidity;BME280_pressure;Samples;Min_cycle;Max_cycle;Signal;HPM_P1;HPM_P2
2023/03/13 00:02:46;;;;;;;10.68;3.80;;;;;8.90;95883.00;;;;8372022;28;20239;-69
2023/03/13 00:06:50;;;;;;;9.38;3.95;;;;;8.80;95876.00;;;;8370931;28;20243;-70
2023/03/13 00:10:53;;;;;;;8.98;4.07;;;;;8.80;95877.00;;;;8379146;28;20728;-69
2023/03/13 00:14:57;;;;;;;12.00;3.78;;;;;8.80;95872.00;;;;8373776;28;20192;-71
2023/03/13 00:19:00;;;;;;;13.98;3.90;;;;;8.80;95868.00;;;;8375379;28;20259;-71
2023/03/13 00:23:04;;;;;;;14.18;3.63;;;;;8.80;95861.00;;;;8370977;28;20208;-69
2023/03/13 00:27:09;;;;;;;10.10;3.65;;;;;8.80;95862.00;;;;8376676;28;20225;-71
2023/03/13 00:31:16;;;;;;;16.40;4.22;;;;;8.90;95854.00;;;;8372094;28;20327;-72
2023/03/13 00:35:19;;;;;;;11.77;3.75;;;;;8.90;95846.00;;;;8375444;28;20286;-71
2023/03/13 00:39:23;;;;;;;11.77;4.10;;;;;8.80;95839.00;;;;8377809;28;20196;-70
2023/03/13 00:43:29;;;;;;;18.00;4.00;;;;;8.70;95838.00;;;;8352806;28;20283;-70
2023/03/13 00:47:33;;;;;;;11.07;3.53;;;;;8.70;95840.00;;;;8359146;28;20802;-72
2023/03/13 00:51:38;;;;;;;7.43;3.38;;;;;8.60;95826.00;;;;8376781;28;20562;-71
2023/03/13 00:55:52;;;;;;;11.27;4.13;;;;;8.50;95829.00;;;;8373648;28;20210;-70
2023/03/13 00:59:55;;;;;;;10.47;3.50;;;;;8.60;95816.00;;;;8371023;28;20641;-70
2023/03/13 01:04:07;;;;;;;14.13;4.00;;;;;8.50;95811.00;;;;8365413;28;20278;-72
2023/03/13 01:08:12;;;;;;;10.73;3.15;;;;;8.50;95806.00;;;;8368483;28;20221;-70
2023/03/13 01:12:20;;;;;;;9.82;4.10;;;;;8.50;95797.00;;;;8367293;28;20669;-71
2023/03/13 01:16:24;;;;;;;10.47;3.67;;;;;8.40;95795.00;;;;8375550;28;20204;-71
2023/03/13 01:20:33;;;;;;;11.20;3.47;;;;;8.40;95803.00;;;;8363422;28;20199;-71
2023/03/13 01:24:39;;;;;;;10.27;3.63;;;;;8.40;95799.00;;;;8369574;28;20200;-72
2023/03/13 01:28:43;;;;;;;7.30;3.03;;;;;8.40;95804.00;;;;8370770;28;20282;-70
2023/03/13 01:32:48;;;;;;;7.03;3.35;;;;;8.40;95810.00;;;;8379345;28;20194;-71
2023/03/13 01:36:56;;;;;;;12.83;3.27;;;;;8.50;95796.00;;;;8373283;28;20917;-71
2023/03/13 01:41:03;;;;;;;8.38;3.28;;;;;8.50;95803.00;;;;8373692;28;20197;-70
2023/03/13 01:45:22;;;;;;;7.18;2.78;;;;;8.50;95801.00;;;;8371723;28;20196;-71
2023/03/13 01:49:32;;;;;;;7.77;3.07;;;;;8.50;95793.00;;;;8374647;28;20220;-70
2023/03/13 01:53:41;;;;;;;6.97;3.17;;;;;8.50;95781.00;;;;8377437;28;20212;-72
2023/03/13 01:57:49;;;;;;;7.50;2.90;;;;;8.40;95780.00;;;;8380899;28;20204;-71
2023/03/13 02:01:55;;;;;;;12.23;3.40;;;;;8.40;95789.00;;;;8373696;28;20258;-72
2023/03/13 02:06:14;;;;;;;6.87;3.13;;;;;8.40;95791.00;;;;8375689;28;20288;-71
2023/03/13 02:10:20;;;;;;;10.80;3.27;;;;;8.40;95783.00;;;;8374740;28;20603;-70
2023/03/13 02:14:28;;;;;;;7.05;3.03;;;;;8.30;95774.00;;;;8373377;28;20251;-70
2023/03/13 02:18:31;;;;;;;10.20;3.25;;;;;8.30;95766.00;;;;8371113;28;20200;-72
2023/03/13 02:22:43;;;;;;;8.00;3.58;;;;;8.30;95770.00;;;;8365190;28;20202;-70
2023/03/13 02:26:52;;;;;;;8.30;3.63;;;;;8.20;95759.00;;;;8366772;28;20236;-69
2023/03/13 02:30:57;;;;;;;13.48;4.05;;;;;8.10;95767.00;;;;8373913;28;20657;-69
2023/03/13 02:35:06;;;;;;;5.95;3.42;;;;;8.00;95768.00;;;;8369737;28;20301;-68
2023/03/13 02:39:21;;;;;;;12.10;3.40;;;;;8.00;95769.00;;;;8366150;28;20196;-71
2023/03/13 02:43:30;;;;;;;7.87;3.20;;;;;7.90;95763.00;;;;8379684;28;20192;-70
2023/03/13 02:47:33;;;;;;;5.13;3.10;;;;;8.00;95763.00;;;;8381474;28;20348;-69
2023/03/13 02:51:44;;;;;;;7.23;3.10;;;;;8.00;95758.00;;;;8380571;28;20196;-69
2023/03/13 02:55:50;;;;;;;13.17;3.40;;;;;8.00;95753.00;;;;8357855;28;20196;-71
2023/03/13 02:59:57;;;;;;;10.23;3.57;;;;;8.10;95762.00;;;;8376960;28;20210;-68
2023/03/13 03:04:03;;;;;;;9.50;2.90;;;;;8.20;95768.00;;;;8417902;22;20707;-70
2023/03/13 03:08:09;;;;;;;6.67;3.17;;;;;8.20;95762.00;;;;8408352;28;20242;-70
2023/03/13 03:12:12;;;;;;;6.00;2.87;;;;;8.30;95758.00;;;;8407705;28;20203;-71
2023/03/13 03:16:18;;;;;;;12.17;3.50;;;;;8.40;95751.00;;;;8406279;28;20195;-69
2023/03/13 03:20:23;;;;;;;6.77;2.97;;;;;8.40;95743.00;;;;8443312;28;20215;-69
2023/03/13 03:24:26;;;;;;;11.00;3.63;;;;;8.40;95738.00;;;;8435765;28;20206;-71
2023/03/13 03:28:29;;;;;;;8.65;2.90;;;;;8.50;95741.00;;;;8444320;28;20219;-69
2023/03/13 03:32:34;;;;;;;12.03;3.40;;;;;8.50;95737.00;;;;8429122;28;20191;-70
2023/03/13 03:36:41;;;;;;;10.63;3.60;;;;;8.50;95741.00;;;;8441295;28;20237;-71
2023/03/13 03:40:44;;;;;;;9.70;3.00;;;;;8.60;95737.00;;;;8444716;28;20194;-70
2023/03/13 03:44:52;;;;;;;3.63;2.47;;;;;8.60;95717.00;;;;8446378;28;20195;-69
2023/03/13 03:49:01;;;;;;;6.47;2.47;;;;;8.50;95724.00;;;;8444680;28;20675;-69
2023/03/13 03:53:08;;;;;;;10.27;2.70;;;;;8.50;95720.00;;;;8433773;28;20191;-70
2023/03/13 03:57:11;;;;;;;3.40;2.40;;;;;8.50;95718.00;;;;8438289;28;20275;-70
2023/03/13 04:01:15;;;;;;;6.53;3.00;;;;;8.50;95703.00;;;;8434643;28;20253;-70
2023/03/13 04:05:20;;;;;;;7.43;2.87;;;;;8.50;95693.00;;;;8408950;28;20250;-69
2023/03/13 04:09:23;;;;;;;5.80;2.38;;;;;8.50;95702.00;;;;8383693;28;20227;-68
2023/03/13 04:13:26;;;;;;;8.27;2.60;;;;;8.50;95690.00;;;;8402739;28;20776;-68
2023/03/13 04:17:29;;;;;;;8.33;2.70;;;;;8.50;95684.00;;;;8409223;28;20298;-68
2023/03/13 04:21:38;;;;;;;5.95;2.50;;;;;8.50;95685.00;;;;8412493;28;20211;-69
2023/03/13 04:25:50;;;;;;;8.00;2.80;;;;;8.40;95675.00;;;;8413430;28;20196;-70
2023/03/13 04:29:53;;;;;;;4.53;2.60;;;;;8.30;95673.00;;;;8402630;28;20223;-68
2023/03/13 04:33:56;;;;;;;6.43;2.50;;;;;8.10;95662.00;;;;8402305;28;20199;-69
2023/03/13 04:38:03;;;;;;;8.90;2.30;;;;;8.00;95658.00;;;;8403826;28;20724;-71
2023/03/13 04:42:06;;;;;;;4.80;2.60;;;;;7.90;95658.00;;;;8399978;28;20475;-69
2023/03/13 04:46:11;;;;;;;4.23;2.57;;;;;7.90;95642.00;;;;8395526;28;20248;-70
2023/03/13 04:50:21;;;;;;;6.40;2.17;;;;;7.80;95653.00;;;;8409627;28;20224;-72
2023/03/13 04:54:28;;;;;;;11.03;2.93;;;;;7.80;95650.00;;;;8398258;28;20280;-68
2023/03/13 04:58:32;;;;;;;7.90;2.87;;;;;7.80;95653.00;;;;8401485;28;20626;-69
2023/03/13 05:02:37;;;;;;;5.67;2.83;;;;;7.90;95644.00;;;;8406960;28;20228;-70
2023/03/13 05:06:43;;;;;;;8.80;2.73;;;;;7.90;95635.00;;;;8412914;28;20210;-69
2023/03/13 05:10:50;;;;;;;8.23;2.90;;;;;8.00;95630.00;;;;8412584;28;20227;-69
2023/03/13 05:14:53;;;;;;;8.17;3.73;;;;;7.90;95635.00;;;;8404699;28;20300;-73
2023/03/13 05:18:56;;;;;;;12.83;3.80;;;;;7.90;95620.00;;;;8395590;28;20617;-73
2023/03/13 05:22:59;;;;;;;13.57;3.50;;;;;7.90;95607.00;;;;8385026;28;20825;-73
2023/03/13 05:27:12;;;;;;;8.73;4.10;;;;;7.80;95606.00;;;;8413378;28;20234;-71
2023/03/13 05:31:15;;;;;;;8.37;4.10;;;;;7.80;95613.00;;;;8411890;28;20192;-70
2023/03/13 05:35:18;;;;;;;8.53;4.20;;;;;7.70;95592.00;;;;8401616;28;20192;-71
2023/03/13 05:39:23;;;;;;;12.77;4.67;;;;;7.60;95594.00;;;;8407121;28;20559;-72
2023/03/13 05:43:33;;;;;;;14.53;5.17;;;;;7.60;95605.00;;;;8400018;28;20249;-71
2023/03/13 05:47:38;;;;;;;8.93;4.70;;;;;7.60;95600.00;;;;8399969;28;20257;-71
2023/03/13 05:51:46;;;;;;;11.43;4.63;;;;;7.60;95597.00;;;;8419675;28;20693;-70
2023/03/13 05:55:49;;;;;;;9.07;4.80;;;;;7.60;95595.00;;;;8435517;28;20249;-70
2023/03/13 05:59:58;;;;;;;10.60;4.97;;;;;7.70;95598.00;;;;8435110;28;20245;-69
2023/03/13 06:04:01;;;;;;;12.00;5.03;;;;;7.80;95600.00;;;;8435656;28;20245;-69
2023/03/13 06:08:07;;;;;;;10.97;5.17;;;;;7.80;95601.00;;;;8434796;28;20227;-69
2023/03/13 06:12:13;;;;;;;13.93;4.97;;;;;7.90;95600.00;;;;8433661;28;20187;-69
2023/03/13 06:16:18;;;;;;;11.23;4.60;;;;;8.00;95587.00;;;;8434150;28;20225;-69
2023/03/13 06:20:22;;;;;;;18.60;5.67;;;;;8.00;95568.00;;;;8434878;28;20632;-69
2023/03/13 06:24:25;;;;;;;16.07;5.67;;;;;8.00;95579.00;;;;8434518;28;20203;-69
2023/03/13 06:28:28;;;;;;;14.47;5.77;;;;;8.00;95595.00;;;;8434032;28;20227;-69
2023/03/13 06:32:33;;;;;;;12.77;5.70;;;;;8.00;95577.00;;;;8434479;28;20196;-69
2023/03/13 06:36:36;;;;;;;14.50;6.70;;;;;7.90;95557.00;;;;8434524;28;20199;-68
2023/03/13 06:40:42;;;;;;;18.93;7.47;;;;;7.90;95549.00;;;;8433641;28;20250;-68
2023/03/13 06:44:45;;;;;;;14.93;6.90;;;;;7.90;95562.00;;;;8434202;28;20199;-69
2023/03/13 06:48:51;;;;;;;13.90;7.13;;;;;7.90;95557.00;;;;8433048;28;20215;-69
2023/03/13 06:52:56;;;;;;;18.97;7.20;;;;;7.80;95556.00;;;;8434024;28;20191;-69
2023/03/13 06:56:59;;;;;;;23.17;8.23;;;;;7.90;95571.00;;;;8432832;28;20191;-69
2023/03/13 07:01:07;;;;;;;18.70;8.67;;;;;8.00;95554.00;;;;8432932;28;20233;-69
2023/03/13 07:05:13;;;;;;;29.00;9.47;;;;;8.00;95559.00;;;;8432616;28;20264;-69
2023/03/13 07:09:18;;;;;;;17.00;9.07;;;;;8.10;95567.00;;;;8433121;28;20223;-69
2023/03/13 07:13:24;;;;;;;23.40;8.20;;;;;8.10;95566.00;;;;8432445;28;20577;-69
2023/03/13 07:17:30;;;;;;;22.47;7.67;;;;;8.10;95565.00;;;;8433711;28;20624;-69
2023/03/13 07:21:35;;;;;;;26.60;8.33;;;;;8.10;95562.00;;;;8431969;28;20190;-68
2023/03/13 07:25:41;;;;;;;20.70;8.93;;;;;8.10;95551.00;;;;8432709;28;20548;-69
2023/03/13 07:29:44;;;;;;;20.97;8.77;;;;;8.00;95555.00;;;;8426722;28;20226;-69
2023/03/13 07:33:51;;;;;;;17.97;8.60;;;;;8.00;95557.00;;;;8431260;28;20183;-69
2023/03/13 07:37:57;;;;;;;17.73;8.37;;;;;8.00;95548.00;;;;8431277;28;20223;-70
2023/03/13 07:42:02;;;;;;;20.67;9.83;;;;;8.10;95544.00;;;;8431941;28;20240;-70
2023/03/13 07:46:08;;;;;;;16.87;8.70;;;;;8.10;95545.00;;;;8431917;28;20536;-70
2023/03/13 07:50:14;;;;;;;20.25;8.15;;;;;8.20;95553.00;;;;8432164;28;20261;-71
2023/03/13 07:54:19;;;;;;;16.23;8.03;;;;;8.30;95536.00;;;;8431393;28;20238;-70
2023/03/13 07:58:25;;;;;;;17.90;7.82;;;;;8.50;95542.00;;;;8430100;28;20545;-71
2023/03/13 08:02:30;;;;;;;13.67;6.93;;;;;8.60;95543.00;;;;8429061;28;20219;-71
2023/03/13 08:06:36;;;;;;;9.73;4.90;;;;;8.80;95548.00;;;;8432076;28;20645;-71
2023/03/13 08:10:41;;;;;;;10.60;4.90;;;;;9.00;95542.00;;;;8430664;28;20223;-70
2023/03/13 08:14:44;;;;;;;6.68;4.07;;;;;9.20;95549.00;;;;8431205;28;20195;-72
2023/03/13 08:18:53;;;;;;;6.88;4.00;;;;;9.20;95546.00;;;;8429932;28;20195;-71
2023/03/13 08:22:57;;;;;;;11.65;4.10;;;;;9.30;95541.00;;;;8430650;28;20338;-71
2023/03/13 08:27:03;;;;;;;6.83;3.87;;;;;9.50;95545.00;;;;8430122;28;20629;-71
2023/03/13 08:31:10;;;;;;;10.18;4.10;;;;;9.80;95537.00;;;;8430180;28;20268;-74
2023/03/13 08:35:14;;;;;;;10.97;5.47;;;;;10.20;95532.00;;;;8432289;28;20195;-74
2023/03/13 08:39:18;;;;;;;12.93;5.10;;;;;10.50;95522.00;;;;8438679;28;20200;-74
2023/03/13 08:43:33;;;;;;;7.75;3.83;;;;;11.00;95515.00;;;;8438011;28;20191;-74
2023/03/13 08:47:37;;;;;;;7.63;3.38;;;;;11.40;95513.00;;;;8438509;28;20559;-74
2023/03/13 08:51:40;;;;;;;7.00;2.83;;;;;11.70;95510.00;;;;8420040;28;20613;-73
2023/03/13 08:55:56;;;;;;;2.80;2.40;;;;;12.00;95520.00;;;;8436807;28;20179;-73
2023/03/13 09:00:00;;;;;;;3.97;2.45;;;;;12.30;95509.00;;;;8437142;28;20236;-71
2023/03/13 09:04:09;;;;;;;5.40;2.95;;;;;12.50;95504.00;;;;8436573;28;20221;-71
2023/03/13 09:08:12;;;;;;;4.97;2.08;;;;;12.60;95506.00;;;;8436861;28;20536;-71
2023/03/13 09:12:16;;;;;;;4.25;1.70;;;;;12.60;95491.00;;;;8427845;28;20308;-71
2023/03/13 09:16:35;;;;;;;1.88;1.48;;;;;12.40;95489.00;;;;8435968;28;20282;-71
2023/03/13 09:20:38;;;;;;;1.70;1.60;;;;;12.20;95481.00;;;;8419012;28;20684;-71
2023/03/13 09:24:43;;;;;;;2.90;1.67;;;;;12.10;95486.00;;;;8436601;28;20650;-71
2023/03/13 09:28:48;;;;;;;3.63;1.55;;;;;12.00;95476.00;;;;8436074;28;20191;-71
2023/03/13 09:32:54;;;;;;;4.57;2.15;;;;;12.00;95477.00;;;;8436096;28;20623;-71
2023/03/13 09:37:00;;;;;;;2.38;1.83;;;;;12.10;95475.00;;;;8435091;28;20572;-72
2023/03/13 09:41:22;;;;;;;6.47;2.42;;;;;12.30;95463.00;;;;8419465;28;20267;-71
2023/03/13 09:45:32;;;;;;;3.97;2.75;;;;;12.40;95463.00;;;;8434971;28;20236;-71
2023/03/13 09:49:41;;;;;;;2.97;2.33;;;;;12.50;95463.00;;;;8435748;28;20239;-71
2023/03/13 09:53:50;;;;;;;2.15;2.05;;;;;12.50;95461.00;;;;8417939;28;20217;-71
2023/03/13 09:57:57;;;;;;;6.88;3.85;;;;;12.50;95449.00;;;;8435140;28;20707;-71
2023/03/13 10:02:03;;;;;;;5.53;3.42;;;;;12.60;95449.00;;;;8435857;28;20239;-71
2023/03/13 10:06:18;;;;;;;26.20;11.52;;;;;12.90;95464.00;;;;8430233;28;20199;-69
2023/03/13 10:10:55;;;;;;;9.02;6.53;;;;;13.10;95454.00;;;;8434971;28;20256;-69
2023/03/13 10:15:16;;;;;;;9.65;6.53;;;;;13.20;95458.00;;;;8435239;28;20644;-69
2023/03/13 10:19:27;;;;;;;4.72;2.40;;;;;13.40;95460.00;;;;8427004;28;20229;-69
2023/03/13 10:23:38;;;;;;;3.63;2.00;;;;;13.70;95463.00;;;;8434865;28;20206;-69
2023/03/13 10:27:48;;;;;;;2.47;2.28;;;;;13.90;95453.00;;;;8434010;28;20191;-68
2023/03/13 10:32:01;;;;;;;2.28;2.03;;;;;14.10;95443.00;;;;8434101;28;20265;-69
2023/03/13 10:36:09;;;;;;;5.65;2.50;;;;;14.20;95446.00;;;;8433262;28;20237;-68
2023/03/13 10:40:27;;;;;;;4.88;1.92;;;;;14.60;95448.00;;;;8434089;28;20615;-68
2023/03/13 10:44:33;;;;;;;1.88;1.77;;;;;15.00;95436.00;;;;8433631;28;20196;-68
2023/03/13 10:48:37;;;;;;;3.67;1.95;;;;;15.40;95450.00;;;;8433783;28;20225;-68
2023/03/13 10:52:46;;;;;;;2.00;1.80;;;;;15.50;95448.00;;;;8433226;28;20692;-67
2023/03/13 10:56:53;;;;;;;2.70;1.70;;;;;15.60;95434.00;;;;8433818;28;20199;-67
2023/03/13 11:01:15;;;;;;;1.52;1.42;;;;;15.80;95433.00;;;;8416623;28;20198;-67
2023/03/13 11:05:33;;;;;;;1.85;1.20;;;;;15.90;95445.00;;;;8432808;28;20197;-68
2023/03/13 11:09:37;;;;;;;1.40;1.30;;;;;16.00;95435.00;;;;8433574;28;20276;-70
2023/03/13 11:13:43;;;;;;;1.92;1.40;;;;;16.20;95439.00;;;;8432353;28;20195;-70
2023/03/13 11:17:54;;;;;;;2.00;1.90;;;;;16.20;95435.00;;;;8416262;28;20191;-70
2023/03/13 11:22:10;;;;;;;6.30;1.50;;;;;16.30;95433.00;;;;8432442;28;20241;-70
2023/03/13 11:26:25;;;;;;;1.83;1.38;;;;;16.30;95434.00;;;;8432987;28;20227;-69
2023/03/13 11:30:50;;;;;;;1.85;1.58;;;;;16.40;95428.00;;;;8432417;28;20216;-70
2023/03/13 11:34:58;;;;;;;1.50;1.40;;;;;16.50;95421.00;;;;8432537;28;20191;-70
2023/03/13 11:39:30;;;;;;;1.65;1.50;;;;;16.50;95410.00;;;;8432745;28;20295;-69
2023/03/13 11:43:49;;;;;;;1.73;1.60;;;;;16.50;95406.00;;;;8431747;28;20199;-70
2023/03/13 11:47:59;;;;;;;2.03;1.30;;;;;16.30;95416.00;;;;8431329;28;20236;-70
2023/03/13 11:52:21;;;;;;;1.40;1.30;;;;;16.20;95403.00;;;;8431978;28;20223;-70
2023/03/13 11:56:32;;;;;;;1.30;1.20;;;;;16.10;95417.00;;;;8432246;28;20571;-70
2023/03/13 12:00:39;;;;;;;1.83;1.38;;;;;16.10;95421.00;;;;8414770;28;20609;-70
2023/03/13 12:04:47;;;;;;;1.92;1.50;;;;;16.20;95414.00;;;;8430494;28;20232;-70
2023/03/13 12:08:55;;;;;;;1.52;1.42;;;;;16.40;95401.00;;;;8413273;28;20227;-70
2023/03/13 12:13:06;;;;;;;2.42;1.55;;;;;16.60;95402.00;;;;8430377;28;20230;-70
2023/03/13 12:17:17;;;;;;;1.50;1.40;;;;;16.90;95392.00;;;;8431526;28;20221;-70
2023/03/13 12:21:29;;;;;;;1.40;1.40;;;;;17.20;95390.00;;;;8430804;28;20640;-70
2023/03/13 12:25:38;;;;;;;1.65;1.55;;;;;17.40;95365.00;;;;8431770;28;20517;-70
2023/03/13 12:29:48;;;;;;;1.48;1.42;;;;;17.50;95361.00;;;;8431818;28;20636;-70
2023/03/13 12:33:59;;;;;;;3.92;1.50;;;;;17.60;95350.00;;;;8431088;28;20192;-70
2023/03/13 12:38:13;;;;;;;2.10;1.70;;;;;17.60;95350.00;;;;8431267;28;20195;-68
2023/03/13 12:42:30;;;;;;;1.80;1.70;;;;;17.70;95358.00;;;;8430374;28;20196;-69
2023/03/13 12:46:41;;;;;;;3.30;1.70;;;;;17.90;95361.00;;;;8428511;28;20349;-70
2023/03/13 12:50:58;;;;;;;1.95;1.85;;;;;17.80;95351.00;;;;8430262;28;20233;-71
2023/03/13 12:55:35;;;;;;;1.90;1.80;;;;;17.80;95343.00;;;;8429125;28;20184;-72
2023/03/13 12:59:41;;;;;;;1.70;1.60;;;;;17.90;95346.00;;;;8431012;28;20245;-72
2023/03/13 13:03:52;;;;;;;3.30;2.60;;;;;17.80;95337.00;;;;8430686;28;20215;-72
2023/03/13 13:07:56;;;;;;;2.13;1.98;;;;;18.00;95320.00;;;;8430570;28;20266;-72
2023/03/13 13:12:05;;;;;;;1.70;1.60;;;;;18.30;95319.00;;;;8430274;28;20226;-72
2023/03/13 13:16:17;;;;;;;1.92;1.77;;;;;18.50;95307.00;;;;8430352;28;20267;-72
2023/03/13 13:20:38;;;;;;;1.80;1.70;;;;;18.60;95289.00;;;;8429635;28;20199;-70
2023/03/13 13:24:49;;;;;;;3.83;1.70;;;;;18.70;95274.00;;;;8436708;28;20255;-71
2023/03/13 13:28:54;;;;;;;2.35;1.98;;;;;19.10;95271.00;;;;8436548;28;20204;-70
2023/03/13 13:33:34;;;;;;;7.10;2.30;;;;;19.30;95266.00;;;;8436051;28;20215;-70
2023/03/13 13:37:40;;;;;;;1.95;1.52;;;;;19.30;95244.00;;;;8435685;28;20248;-71
2023/03/13 13:41:46;;;;;;;2.47;2.30;;;;;19.20;95237.00;;;;8436214;28;20191;-71
2023/03/13 13:46:01;;;;;;;5.10;2.97;;;;;19.20;95229.00;;;;8435049;28;20214;-71
2023/03/13 13:50:17;;;;;;;1.70;1.60;;;;;19.30;95229.00;;;;8434928;28;20256;-70
2023/03/13 13:54:39;;;;;;;6.18;2.83;;;;;19.50;95221.00;;;;8435459;28;20202;-71
2023/03/13 13:58:45;;;;;;;13.15;7.75;;;;;19.50;95209.00;;;;8436174;28;20180;-71
2023/03/13 14:02:55;;;;;;;8.32;4.85;;;;;19.40;95209.00;;;;8435179;28;20219;-71
2023/03/13 14:07:02;;;;;;;2.65;2.35;;;;;19.50;95197.00;;;;8434468;28;20237;-72
2023/03/13 14:11:15;;;;;;;4.57;2.60;;;;;19.40;95198.00;;;;8435048;28;20249;-70
2023/03/13 14:15:20;;;;;;;6.32;3.08;;;;;19.30;95193.00;;;;8435235;28;20191;-70
2023/03/13 14:19:30;;;;;;;8.43;3.60;;;;;19.20;95176.00;;;;8434773;28;20191;-71
2023/03/13 14:23:41;;;;;;;23.42;11.07;;;;;19.20;95176.00;;;;8434870;28;20248;-70
2023/03/13 14:27:46;;;;;;;8.73;5.10;;;;;19.30;95162.00;;;;8434667;28;20508;-71
2023/03/13 14:31:53;;;;;;;7.97;4.40;;;;;19.50;95152.00;;;;8434823;28;20587;-71
2023/03/13 14:36:01;;;;;;;2.90;2.60;;;;;19.50;95147.00;;;;8433109;28;20274;-70
2023/03/13 14:40:09;;;;;;;3.05;1.80;;;;;19.40;95129.00;;;;8433937;28;20234;-70
2023/03/13 14:44:24;;;;;;;3.45;2.25;;;;;19.40;95129.00;;;;8434283;28;20195;-70
2023/03/13 14:48:31;;;;;;;3.28;2.00;;;;;19.60;95116.00;;;;8426288;28;20231;-71
2023/03/13 14:52:38;;;;;;;4.03;1.80;;;;;19.80;95101.00;;;;8433906;28;20547;-71
2023/03/13 14:56:42;;;;;;;4.72;2.15;;;;;19.90;95093.00;;;;8432478;28;20608;-71
2023/03/13 15:00:46;;;;;;;2.35;1.85;;;;;19.90;95076.00;;;;8433247;28;20191;-71
2023/03/13 15:04:59;;;;;;;2.00;1.75;;;;;19.80;95072.00;;;;8434055;28;20552;-71
2023/03/13 15:09:20;;;;;;;2.60;1.90;;;;;19.80;95078.00;;;;8432339;28;20196;-71
2023/03/13 15:13:24;;;;;;;3.13;1.65;;;;;19.80;95067.00;;;;8432448;28;20223;-71
2023/03/13 15:17:28;;;;;;;2.67;2.45;;;;;19.90;95063.00;;;;8433157;28;20195;-71
2023/03/13 15:21:33;;;;;;;2.20;1.55;;;;;19.90;95046.00;;;;8433106;28;20636;-71
2023/03/13 15:25:39;;;;;;;2.58;1.77;;;;;19.80;95038.00;;;;8433835;28;20505;-71
2023/03/13 15:29:43;;;;;;;2.03;1.73;;;;;19.60;95027.00;;;;8414050;28;20199;-71
2023/03/13 15:33:47;;;;;;;1.50;1.50;;;;;19.40;95009.00;;;;8413225;28;20215;-71
2023/03/13 15:37:52;;;;;;;1.55;1.45;;;;;19.20;94996.00;;;;8432587;28;20196;-71
2023/03/13 15:41:59;;;;;;;3.63;1.58;;;;;19.20;94994.00;;;;8414788;28;20208;-70
2023/03/13 15:46:04;;;;;;;2.90;1.70;;;;;19.20;94983.00;;;;8431219;28;20548;-70
2023/03/13 15:50:14;;;;;;;5.05;2.70;;;;;19.30;94983.00;;;;8429018;28;20203;-71
2023/03/13 15:54:17;;;;;;;5.05;2.67;;;;;19.30;94981.00;;;;8432283;28;20296;-70
2023/03/13 15:58:23;;;;;;;3.63;3.08;;;;;19.20;94977.00;;;;8432131;28;20195;-70
2023/03/13 16:02:27;;;;;;;5.82;3.35;;;;;19.20;94966.00;;;;8431807;28;20303;-70
2023/03/13 16:06:33;;;;;;;3.38;3.08;;;;;18.90;94955.00;;;;8414120;28;20235;-71
2023/03/13 16:10:36;;;;;;;3.97;3.30;;;;;18.70;94956.00;;;;8431179;28;20192;-71
2023/03/13 16:14:41;;;;;;;4.55;3.17;;;;;18.40;94937.00;;;;8431980;28;20671;-71
2023/03/13 16:18:44;;;;;;;3.90;3.55;;;;;18.00;94919.00;;;;8430289;28;20195;-71
2023/03/13 16:22:48;;;;;;;3.78;3.40;;;;;17.60;94907.00;;;;8431819;28;20199;-71
2023/03/13 16:26:55;;;;;;;5.20;3.92;;;;;17.20;94909.00;;;;8430155;28;20189;-71
2023/03/13 16:31:03;;;;;;;7.60;3.67;;;;;16.90;94898.00;;;;8429898;28;20192;-72
2023/03/13 16:35:08;;;;;;;7.70;4.25;;;;;16.60;94891.00;;;;8430487;28;20272;-72
2023/03/13 16:39:16;;;;;;;6.90;5.13;;;;;16.30;94887.00;;;;8431733;28;20676;-72
2023/03/13 16:43:19;;;;;;;18.20;8.85;;;;;16.10;94874.00;;;;8412706;28;20192;-72
2023/03/13 16:47:28;;;;;;;21.20;8.73;;;;;15.90;94876.00;;;;8430248;28;20195;-72
2023/03/13 16:51:31;;;;;;;26.38;9.32;;;;;15.70;94872.00;;;;8431221;28;20518;-72
2023/03/13 16:55:36;;;;;;;54.65;24.83;;;;;15.50;94872.00;;;;8426253;28;20192;-73
2023/03/13 16:59:42;;;;;;;36.13;17.73;;;;;15.30;94867.00;;;;8434426;28;20282;-72
2023/03/13 17:03:49;;;;;;;48.00;18.27;;;;;15.10;94856.00;;;;8437850;28;20219;-72
2023/03/13 17:07:53;;;;;;;15.73;8.60;;;;;14.90;94856.00;;;;8435814;28;20199;-72
2023/03/13 17:11:58;;;;;;;13.93;6.45;;;;;14.70;94853.00;;;;8417449;28;20215;-71
2023/03/13 17:16:01;;;;;;;9.00;6.30;;;;;14.50;94841.00;;;;8435787;28;20199;-71
2023/03/13 17:20:08;;;;;;;6.20;5.47;;;;;14.30;94839.00;;;;8436589;28;20616;-72
2023/03/13 17:24:11;;;;;;;7.95;4.55;;;;;14.10;94826.00;;;;8435240;28;20200;-72
2023/03/13 17:28:15;;;;;;;7.25;4.82;;;;;14.00;94832.00;;;;8435495;28;20540;-72
2023/03/13 17:32:18;;;;;;;7.45;4.70;;;;;13.80;94826.00;;;;8428005;28;20215;-72
2023/03/13 17:36:27;;;;;;;35.00;22.70;;;;;13.70;94808.00;;;;8436054;28;20187;-72
2023/03/13 17:40:31;;;;;;;21.33;17.85;;;;;13.60;94786.00;;;;8435428;28;20246;-72
2023/03/13 17:44:34;;;;;;;29.90;24.17;;;;;13.40;94791.00;;;;8435385;28;20192;-72
2023/03/13 17:48:42;;;;;;;8.88;5.50;;;;;13.30;94777.00;;;;8435550;28;20195;-73
2023/03/13 17:52:47;;;;;;;15.50;11.45;;;;;13.20;94781.00;;;;8435591;28;20223;-73
2023/03/13 17:56:51;;;;;;;8.55;5.90;;;;;13.10;94761.00;;;;8436906;28;20191;-73
2023/03/13 18:00:55;;;;;;;5.97;4.80;;;;;13.00;94756.00;;;;8416699;28;20195;-73
2023/03/13 18:04:59;;;;;;;9.48;6.32;;;;;12.90;94754.00;;;;8417318;28;20273;-71
2023/03/13 18:09:14;;;;;;;10.98;6.65;;;;;12.90;94751.00;;;;8435992;28;20632;-72
2023/03/13 18:13:19;;;;;;;12.43;6.20;;;;;12.80;94755.00;;;;8434558;28;20295;-72
2023/03/13 18:17:28;;;;;;;35.42;19.67;;;;;12.70;94756.00;;;;8434102;28;20245;-72
2023/03/13 18:21:31;;;;;;;13.73;7.65;;;;;12.70;94750.00;;;;8434947;28;20195;-72
2023/03/13 18:25:40;;;;;;;10.48;6.03;;;;;12.60;94742.00;;;;8434482;28;20632;-72
2023/03/13 18:29:49;;;;;;;12.68;7.47;;;;;12.60;94726.00;;;;8434560;28;20237;-72
2023/03/13 18:33:56;;;;;;;10.48;7.32;;;;;12.50;94733.00;;;;8434775;28;20314;-72
2023/03/13 18:37:59;;;;;;;7.55;5.78;;;;;12.50;94715.00;;;;8434025;28;20195;-71
2023/03/13 18:42:06;;;;;;;7.50;5.97;;;;;12.40;94705.00;;;;8413581;28;20336;-72
2023/03/13 18:46:17;;;;;;;7.40;5.40;;;;;12.40;94696.00;;;;8431655;28;20243;-72
2023/03/13 18:50:25;;;;;;;7.45;5.35;;;;;12.30;94680.00;;;;8434214;28;20207;-70
2023/03/13 18:54:31;;;;;;;7.57;5.18;;;;;12.20;94667.00;;;;8433801;28;20230;-70
2023/03/13 18:58:38;;;;;;;9.15;4.88;;;;;12.20;94658.00;;;;8427177;28;20245;-70
2023/03/13 19:02:42;;;;;;;9.93;5.13;;;;;12.20;94646.00;;;;8431327;28;20222;-70
2023/03/13 19:06:46;;;;;;;5.88;5.05;;;;;12.20;94639.00;;;;8423388;28;20195;-70
2023/03/13 19:10:52;;;;;;;5.97;4.70;;;;;12.10;94635.00;;;;8433237;28;20209;-71
2023/03/13 19:14:57;;;;;;;6.13;4.80;;;;;12.10;94637.00;;;;8432350;28;20258;-70
2023/03/13 19:19:01;;;;;;;8.20;4.93;;;;;12.00;94633.00;;;;8431664;28;20247;-71
2023/03/13 19:23:04;;;;;;;6.72;4.70;;;;;12.00;94632.00;;;;8432845;28;20499;-70
2023/03/13 19:27:07;;;;;;;16.30;5.90;;;;;11.90;94620.00;;;;8431435;28;20240;-70
2023/03/13 19:31:15;;;;;;;7.88;5.20;;;;;11.80;94605.00;;;;8432025;28;20188;-70
2023/03/13 19:35:22;;;;;;;11.27;5.13;;;;;11.80;94597.00;;;;8424635;28;20633;-70
2023/03/13 19:39:26;;;;;;;9.40;4.80;;;;;11.70;94599.00;;;;8432465;28;20194;-70
2023/03/13 19:43:34;;;;;;;7.95;5.43;;;;;11.70;94586.00;;;;8431680;28;20185;-71
2023/03/13 19:47:38;;;;;;;6.93;4.80;;;;;11.60;94587.00;;;;8432175;28;20254;-70
2023/03/13 19:51:42;;;;;;;5.95;4.38;;;;;11.60;94598.00;;;;8432908;28;21131;-71
2023/03/13 19:55:45;;;;;;;11.00;5.22;;;;;11.60;94605.00;;;;8431099;28;20803;-71
2023/03/13 19:59:51;;;;;;;6.93;4.57;;;;;11.50;94607.00;;;;8431460;28;20226;-72
2023/03/13 20:03:55;;;;;;;8.27;4.70;;;;;11.50;94601.00;;;;8430626;28;20354;-72
2023/03/13 20:08:00;;;;;;;6.97;4.95;;;;;11.40;94588.00;;;;8431349;28;20191;-72
2023/03/13 20:12:08;;;;;;;6.38;4.47;;;;;11.30;94576.00;;;;8430549;28;20195;-72
2023/03/13 20:16:13;;;;;;;8.77;5.03;;;;;11.20;94559.00;;;;8430894;28;20277;-72
2023/03/13 20:20:18;;;;;;;7.03;4.50;;;;;11.20;94563.00;;;;8427993;28;20228;-71
2023/03/13 20:24:21;;;;;;;10.23;4.38;;;;;11.10;94543.00;;;;8426957;28;20636;-71
2023/03/13 20:28:27;;;;;;;11.20;4.93;;;;;11.10;94537.00;;;;8430339;28;20588;-71
2023/03/13 20:32:31;;;;;;;8.32;4.72;;;;;11.10;94559.00;;;;8429129;28;20248;-71
2023/03/13 20:36:35;;;;;;;6.78;3.97;;;;;11.20;94551.00;;;;8413445;28;20670;-70
2023/03/13 20:40:38;;;;;;;9.10;4.20;;;;;11.20;94553.00;;;;8430427;28;20571;-71